Time;durP1;ratioP1;P1;durP2;ratioP2;P2;SDS_P1;SDS_P2;PMS_P1;PMS_P2;Temp;Humidity;BMP_temperature;BMP_pressure;BME280_temperature;BME280_humidity;BME280_pressure;Samples;Min_cycle;Max_cycle;Signal;HPM_P1;HPM_P2
2023/05/22 00:01:07;;;;;;;99.93;58.13;;;17.50;99.90;;;;;;5005953;28;20049;-77
2023/05/22 00:03:35;;;;;;;92.28;54.78;;;17.40;99.90;;;;;;5010595;28;20031;-77
2023/05/22 00:06:00;;;;;;;110.28;58.97;;;17.40;99.90;;;;;;5004928;28;20019;-76
2023/05/22 00:08:27;;;;;;;106.40;59.97;;;17.40;99.90;;;;;;5023509;28;20022;-78
2023/05/22 00:10:53;;;;;;;110.85;59.40;;;17.40;99.90;;;;;;5007975;28;20540;-77
2023/05/22 00:13:21;;;;;;;105.38;58.20;;;17.40;99.90;;;;;;5012305;28;20026;-76
2023/05/22 00:15:48;;;;;;;101.57;57.38;;;17.40;99.90;;;;;;5005869;28;20019;-76
2023/05/22 00:18:13;;;;;;;87.25;56.22;;;17.40;99.90;;;;;;5004852;28;20049;-77
2023/05/22 00:20:39;;;;;;;107.18;57.88;;;17.30;99.90;;;;;;5021901;28;20014;-77
2023/05/22 00:23:09;;;;;;;82.85;52.08;;;17.30;99.90;;;;;;5008733;28;20065;-76
2023/05/22 00:25:35;;;;;;;84.32;53.83;;;17.30;99.90;;;;;;5013901;28;20030;-76
2023/05/22 00:28:01;;;;;;;94.05;53.13;;;17.20;99.90;;;;;;5021562;28;20022;-76
2023/05/22 00:30:27;;;;;;;101.43;55.60;;;17.20;99.90;;;;;;5007640;28;20046;-77
2023/05/22 00:32:52;;;;;;;97.93;54.58;;;17.30;99.90;;;;;;5010210;28;20026;-76
2023/05/22 00:35:18;;;;;;;98.97;59.15;;;17.20;99.90;;;;;;5022620;28;20366;-77
2023/05/22 00:37:44;;;;;;;88.15;55.22;;;17.20;99.90;;;;;;5023137;28;20052;-75
2023/05/22 00:40:11;;;;;;;104.35;57.13;;;17.10;99.90;;;;;;5007488;28;20046;-76
2023/05/22 00:42:38;;;;;;;95.25;55.90;;;17.10;99.90;;;;;;5007403;28;20099;-77
2023/05/22 00:45:07;;;;;;;96.45;57.28;;;17.10;99.90;;;;;;5007300;28;20026;-75
2023/05/22 00:47:33;;;;;;;94.03;57.35;;;17.10;99.90;;;;;;5019292;28;20101;-77
2023/05/22 00:49:59;;;;;;;81.85;50.80;;;17.00;99.90;;;;;;5008883;28;20110;-77
2023/05/22 00:52:25;;;;;;;89.72;53.33;;;17.00;99.90;;;;;;5005287;28;20033;-76
2023/05/22 00:54:53;;;;;;;97.50;55.10;;;16.90;99.90;;;;;;5004950;28;20034;-76
2023/05/22 00:57:20;;;;;;;107.35;58.10;;;17.00;99.90;;;;;;5022931;28;20034;-78
2023/05/22 00:59:49;;;;;;;104.10;59.67;;;17.00;99.90;;;;;;5006073;28;20018;-77
2023/05/22 01:02:15;;;;;;;103.57;57.47;;;16.90;99.90;;;;;;5005634;28;20025;-77
2023/05/22 01:04:47;;;;;;;91.22;51.35;;;16.90;99.90;;;;;;5005449;28;20037;-77
2023/05/22 01:07:22;;;;;;;79.60;49.53;;;16.90;99.90;;;;;;5008733;28;20021;-77
2023/05/22 01:09:48;;;;;;;101.03;56.63;;;16.80;99.90;;;;;;5009047;28;20038;-76
2023/05/22 01:12:31;;;;;;;116.78;60.00;;;16.80;99.90;;;;;;5021860;28;20041;-76
2023/05/22 01:15:28;;;;;;;114.90;59.78;;;16.80;99.90;;;;;;5006033;28;20022;-77
2023/05/22 01:17:59;;;;;;;136.95;64.22;;;16.80;99.90;;;;;;5007137;28;20026;-76
2023/05/22 01:20:35;;;;;;;146.95;70.78;;;16.80;99.90;;;;;;5022869;28;20107;-76
2023/05/22 01:23:39;;;;;;;104.97;62.83;;;16.80;99.90;;;;;;5009443;28;20065;-77
2023/05/22 01:26:47;;;;;;;118.10;64.70;;;16.70;99.90;;;;;;5025047;28;20094;-76
2023/05/22 01:29:45;;;;;;;122.05;66.65;;;16.70;99.90;;;;;;5008782;28;20037;-77
2023/05/22 01:32:14;;;;;;;95.00;57.53;;;16.60;99.90;;;;;;5019365;28;20046;-76
2023/05/22 01:34:44;;;;;;;119.53;60.90;;;16.60;99.90;;;;;;5024998;28;20036;-77
2023/05/22 01:37:13;;;;;;;133.45;68.03;;;16.60;99.90;;;;;;5005127;28;20120;-80
2023/05/22 01:39:40;;;;;;;98.55;59.60;;;16.60;99.90;;;;;;5024179;28;20026;-77
2023/05/22 01:42:06;;;;;;;126.45;65.88;;;16.60;99.90;;;;;;5007360;28;20028;-80
2023/05/22 01:44:32;;;;;;;128.30;66.05;;;16.60;99.90;;;;;;5006036;28;20030;-76
2023/05/22 01:47:03;;;;;;;117.22;64.32;;;16.60;99.90;;;;;;5007129;28;20102;-76
2023/05/22 01:49:30;;;;;;;127.72;67.57;;;16.50;99.90;;;;;;5023470;28;20041;-78
2023/05/22 01:52:08;;;;;;;139.40;71.35;;;16.50;99.90;;;;;;5006008;28;20044;-77
2023/05/22 01:55:02;;;;;;;141.88;68.43;;;16.50;99.90;;;;;;5024137;28;20026;-76
2023/05/22 01:57:51;;;;;;;146.52;70.75;;;16.50;99.90;;;;;;5023938;28;20029;-77
2023/05/22 02:00:21;;;;;;;157.00;70.70;;;16.50;99.90;;;;;;5022158;28;20034;-78
2023/05/22 02:03:07;;;;;;;128.02;66.53;;;16.50;99.90;;;;;;5013538;28;20026;-79
2023/05/22 02:05:37;;;;;;;129.05;66.25;;;16.60;99.90;;;;;;5022907;28;20022;-78
2023/05/22 02:08:04;;;;;;;105.18;62.88;;;16.50;99.90;;;;;;5005274;28;20027;-77
2023/05/22 02:10:35;;;;;;;116.22;66.00;;;16.50;99.90;;;;;;5005305;28;20046;-78
2023/05/22 02:13:03;;;;;;;126.88;67.68;;;16.50;99.90;;;;;;5023082;28;20046;-80
2023/05/22 02:15:29;;;;;;;138.50;70.60;;;16.50;99.90;;;;;;5005503;28;20022;-76
2023/05/22 02:18:01;;;;;;;148.35;73.65;;;16.40;99.90;;;;;;5021516;28;20041;-79
2023/05/22 02:20:33;;;;;;;157.82;76.97;;;16.40;99.90;;;;;;5005585;28;20032;-76
2023/05/22 02:22:59;;;;;;;159.88;78.88;;;16.40;99.90;;;;;;5008643;28;20106;-76
2023/05/22 02:25:30;;;;;;;164.25;78.90;;;16.40;99.90;;;;;;5005467;28;20039;-79
2023/05/22 02:27:55;;;;;;;166.65;77.60;;;16.30;99.90;;;;;;5005420;28;20053;-80
2023/05/22 02:30:21;;;;;;;157.55;77.63;;;16.40;99.90;;;;;;5021785;28;20068;-76
2023/05/22 02:32:47;;;;;;;168.27;77.45;;;16.40;99.90;;;;;;5006037;28;20212;-77
2023/05/22 02:35:12;;;;;;;147.75;73.35;;;16.50;99.90;;;;;;5005952;28;20027;-76
2023/05/22 02:37:38;;;;;;;146.63;71.65;;;16.50;99.90;;;;;;5006919;28;20025;-77
2023/05/22 02:40:08;;;;;;;140.68;71.70;;;16.50;99.90;;;;;;5011167;28;20030;-80
2023/05/22 02:42:34;;;;;;;148.00;75.00;;;16.50;99.90;;;;;;5022978;28;20041;-76
2023/05/22 02:45:00;;;;;;;154.50;75.55;;;16.50;99.90;;;;;;5005270;28;20101;-76
2023/05/22 02:47:26;;;;;;;138.68;69.18;;;16.40;99.90;;;;;;5010345;28;20029;-77
2023/05/22 02:49:52;;;;;;;155.57;76.38;;;16.40;99.90;;;;;;5021407;28;20036;-79
2023/05/22 02:52:17;;;;;;;129.00;68.45;;;16.40;99.90;;;;;;5004674;28;21045;-76
2023/05/22 02:54:43;;;;;;;136.70;69.57;;;16.40;99.90;;;;;;5003851;28;20061;-76
2023/05/22 02:57:09;;;;;;;171.57;75.15;;;16.40;99.90;;;;;;5009399;28;20232;-76
2023/05/22 02:59:35;;;;;;;143.27;70.45;;;16.40;99.90;;;;;;5004728;28;20044;-76
2023/05/22 03:02:05;;;;;;;124.93;65.68;;;16.40;99.90;;;;;;5019723;28;20033;-77
2023/05/22 03:04:33;;;;;;;124.45;65.10;;;16.40;99.90;;;;;;5003814;28;20034;-79
2023/05/22 03:07:00;;;;;;;148.65;67.40;;;16.30;99.90;;;;;;5020290;28;20030;-76
2023/05/22 03:09:26;;;;;;;107.53;62.05;;;16.40;99.90;;;;;;5002222;28;20438;-76
2023/05/22 03:11:51;;;;;;;121.95;64.35;;;16.40;99.90;;;;;;5022723;28;20073;-77
2023/05/22 03:14:20;;;;;;;108.97;62.22;;;16.30;99.90;;;;;;5005492;28;20031;-76
2023/05/22 03:16:46;;;;;;;117.63;64.78;;;16.30;99.90;;;;;;5008253;28;20113;-77
2023/05/22 03:19:14;;;;;;;112.00;60.30;;;16.20;99.90;;;;;;5023853;28;20719;-79
2023/05/22 03:21:47;;;;;;;139.10;66.95;;;16.20;99.90;;;;;;5021983;28;20036;-80
2023/05/22 03:24:16;;;;;;;126.97;65.93;;;16.20;99.90;;;;;;5005125;28;20052;-77
2023/05/22 03:26:42;;;;;;;140.88;67.35;;;16.00;99.90;;;;;;5005902;28;20026;-77
2023/05/22 03:29:13;;;;;;;114.03;63.08;;;16.10;99.90;;;;;;5006041;28;20034;-76
2023/05/22 03:31:39;;;;;;;114.57;62.05;;;16.10;99.90;;;;;;5010566;28;20034;-76
2023/05/22 03:34:07;;;;;;;121.90;61.13;;;16.00;99.90;;;;;;5009722;28;20078;-77
2023/05/22 03:36:35;;;;;;;102.03;60.00;;;16.00;99.90;;;;;;5025537;28;20077;-78
2023/05/22 03:39:07;;;;;;;104.05;57.58;;;16.00;99.90;;;;;;5013122;28;20033;-77
2023/05/22 03:41:32;;;;;;;109.20;56.33;;;15.80;99.90;;;;;;5027391;28;20022;-78
2023/05/22 03:43:58;;;;;;;89.00;52.35;;;15.90;99.90;;;;;;5011150;28;20018;-77
2023/05/22 03:46:24;;;;;;;89.25;51.70;;;15.80;99.90;;;;;;5027596;28;20033;-76
2023/05/22 03:48:52;;;;;;;90.80;52.35;;;15.80;99.90;;;;;;5009054;28;20053;-77
2023/05/22 03:51:20;;;;;;;89.05;51.38;;;15.80;99.90;;;;;;5026430;28;20058;-76
2023/05/22 03:53:49;;;;;;;85.65;51.22;;;15.80;99.90;;;;;;5011548;28;20014;-76
2023/05/22 03:56:17;;;;;;;96.88;53.47;;;15.70;99.90;;;;;;5027927;28;20026;-75
2023/05/22 03:58:45;;;;;;;72.78;48.40;;;15.80;99.90;;;;;;5010324;28;20050;-77
2023/05/22 04:01:12;;;;;;;88.63;49.95;;;15.70;99.90;;;;;;5027873;28;20026;-76
2023/05/22 04:03:38;;;;;;;78.63;48.00;;;15.60;99.90;;;;;;5027450;28;20025;-76
2023/05/22 04:06:04;;;;;;;68.53;46.67;;;15.60;99.90;;;;;;5009695;28;20018;-76
2023/05/22 04:08:30;;;;;;;81.85;45.58;;;15.60;99.90;;;;;;5012981;28;20121;-77
2023/05/22 04:10:59;;;;;;;81.40;48.70;;;15.50;99.90;;;;;;5008612;28;20045;-77
2023/05/22 04:13:25;;;;;;;84.18;49.28;;;15.60;99.90;;;;;;5010319;28;20026;-77
2023/05/22 04:15:52;;;;;;;85.40;52.35;;;15.50;99.90;;;;;;5010294;28;20041;-77
2023/05/22 04:18:20;;;;;;;86.70;52.83;;;15.40;99.90;;;;;;5026975;28;20010;-76
2023/05/22 04:20:45;;;;;;;95.30;55.25;;;15.50;99.90;;;;;;5012226;28;20026;-79
2023/05/22 04:23:16;;;;;;;79.55;49.90;;;15.40;99.90;;;;;;5009798;28;20045;-77
2023/05/22 04:25:46;;;;;;;80.70;49.30;;;15.40;99.90;;;;;;5011416;28;20014;-77
2023/05/22 04:28:19;;;;;;;91.10;54.72;;;15.40;99.90;;;;;;5027012;28;20048;-77
2023/05/22 04:30:50;;;;;;;99.40;56.90;;;15.50;99.90;;;;;;5026390;28;20030;-76
2023/05/22 04:33:16;;;;;;;94.55;54.83;;;15.40;99.90;;;;;;5010619;28;20017;-76
2023/05/22 04:35:43;;;;;;;87.93;54.60;;;15.40;99.90;;;;;;5011460;28;20023;-76
2023/05/22 04:38:09;;;;;;;99.35;57.30;;;15.50;99.90;;;;;;5010611;28;20022;-76
2023/05/22 04:40:36;;;;;;;91.68;56.50;;;15.40;99.90;;;;;;5009899;28;20081;-77
2023/05/22 04:43:02;;;;;;;87.75;52.95;;;15.40;99.90;;;;;;5013012;28;20022;-77
2023/05/22 04:45:29;;;;;;;81.07;54.08;;;15.30;99.90;;;;;;5010953;28;20101;-75
2023/05/22 04:47:55;;;;;;;88.45;57.35;;;15.30;99.90;;;;;;5010537;28;20053;-76
2023/05/22 04:50:22;;;;;;;102.80;59.10;;;15.40;99.90;;;;;;5010030;28;20490;-78
2023/05/22 04:52:48;;;;;;;107.05;62.25;;;15.30;99.90;;;;;;5010754;28;20018;-79
2023/05/22 04:55:14;;;;;;;108.10;61.85;;;15.30;99.90;;;;;;5010883;28;20057;-79
2023/05/22 04:57:43;;;;;;;109.63;64.43;;;15.30;99.90;;;;;;5028598;28;20529;-77
2023/05/22 05:00:11;;;;;;;108.10;64.95;;;15.20;99.90;;;;;;5027439;28;20011;-78
2023/05/22 05:02:39;;;;;;;99.90;60.83;;;15.30;99.90;;;;;;5012000;28;20076;-79
2023/05/22 05:05:11;;;;;;;101.22;61.63;;;15.30;99.90;;;;;;5027049;28;20041;-76
2023/05/22 05:07:42;;;;;;;108.30;67.22;;;15.30;99.90;;;;;;5025030;28;20019;-76
2023/05/22 05:10:08;;;;;;;115.60;65.53;;;15.30;99.90;;;;;;5009806;28;20010;-76
2023/05/22 05:12:39;;;;;;;108.57;63.17;;;15.30;99.90;;;;;;5009359;28;20024;-76
2023/05/22 05:15:05;;;;;;;94.40;57.95;;;15.30;99.90;;;;;;5010842;28;20041;-77
2023/05/22 05:17:33;;;;;;;99.05;62.90;;;15.30;99.90;;;;;;5011085;28;20038;-78
2023/05/22 05:19:59;;;;;;;106.53;64.47;;;15.30;99.90;;;;;;5015376;28;20021;-77
2023/05/22 05:22:25;;;;;;;103.50;62.85;;;15.30;99.90;;;;;;5008161;28;20026;-76
2023/05/22 05:24:51;;;;;;;95.45;58.72;;;15.30;99.90;;;;;;5011354;28;20706;-75
2023/05/22 05:27:20;;;;;;;107.47;61.20;;;15.30;99.90;;;;;;5008341;28;20022;-77
2023/05/22 05:29:48;;;;;;;115.05;65.82;;;15.30;99.90;;;;;;5010337;28;20034;-78
2023/05/22 05:32:13;;;;;;;118.00;65.85;;;15.30;99.90;;;;;;5011752;28;20026;-77
2023/05/22 05:34:41;;;;;;;115.20;65.07;;;15.20;99.90;;;;;;5025365;28;20045;-77
2023/05/22 05:37:09;;;;;;;125.13;68.07;;;15.30;99.90;;;;;;5027633;28;20057;-76
2023/05/22 05:39:35;;;;;;;132.43;69.50;;;15.30;99.90;;;;;;5011222;28;20046;-76
2023/05/22 05:42:03;;;;;;;136.00;68.40;;;15.30;99.90;;;;;;5011328;28;20101;-76
2023/05/22 05:44:32;;;;;;;120.72;67.65;;;15.30;99.90;;;;;;5026485;28;20026;-78
2023/05/22 05:46:57;;;;;;;131.25;68.85;;;15.30;99.90;;;;;;5011278;28;20053;-77
2023/05/22 05:49:25;;;;;;;135.02;68.25;;;15.30;99.90;;;;;;5007775;28;20098;-77
2023/05/22 05:51:53;;;;;;;154.27;74.65;;;15.30;99.90;;;;;;5009512;28;20221;-76
2023/05/22 05:56:55;;;;;;;144.07;74.75;;;15.30;99.90;;;;;;5000598;23;20042;-77
2023/05/22 05:59:30;;;;;;;150.00;74.47;;;15.40;99.90;;;;;;4978825;28;20074;-78
2023/05/22 06:02:04;;;;;;;144.48;73.57;;;15.30;99.90;;;;;;5090991;23;20035;-78
2023/05/22 06:04:29;;;;;;;158.40;78.15;;;15.50;99.90;;;;;;4992441;28;20023;-77
2023/05/22 06:06:55;;;;;;;140.88;76.20;;;15.50;99.90;;;;;;4993798;28;20031;-76
2023/05/22 06:09:29;;;;;;;151.55;75.80;;;15.50;99.90;;;;;;5051721;23;20122;-76
2023/05/22 06:11:57;;;;;;;152.50;74.60;;;15.50;99.90;;;;;;5008354;23;20070;-77
2023/05/22 06:14:25;;;;;;;138.63;71.28;;;15.60;99.90;;;;;;5081832;23;20043;-76
2023/05/22 06:16:53;;;;;;;142.45;73.32;;;15.60;99.90;;;;;;4991529;28;20022;-77
2023/05/22 06:19:21;;;;;;;135.10;71.97;;;15.60;99.90;;;;;;5006256;28;20050;-79
2023/05/22 06:21:50;;;;;;;128.63;68.95;;;15.70;99.90;;;;;;4992285;28;20085;-78
2023/05/22 06:24:18;;;;;;;131.50;69.60;;;15.60;99.90;;;;;;4990048;28;20022;-76
2023/05/22 06:26:48;;;;;;;129.63;68.25;;;15.70;99.90;;;;;;4991508;28;20087;-76
2023/05/22 06:29:17;;;;;;;149.85;75.35;;;15.60;99.90;;;;;;4984698;28;20058;-77
2023/05/22 06:31:48;;;;;;;128.95;68.80;;;15.70;99.90;;;;;;4991597;28;20023;-77
2023/05/22 06:34:13;;;;;;;135.00;73.03;;;15.80;99.90;;;;;;4991690;28;20031;-77
2023/05/22 06:36:39;;;;;;;148.15;77.63;;;15.70;99.90;;;;;;4992467;28;20058;-77
2023/05/22 06:39:07;;;;;;;143.65;78.80;;;15.70;99.90;;;;;;4991462;28;20023;-77
2023/05/22 06:41:34;;;;;;;138.93;74.32;;;15.70;99.90;;;;;;5007529;28;20027;-76
2023/05/22 06:44:01;;;;;;;138.45;70.93;;;15.90;99.90;;;;;;4985453;28;20031;-80
2023/05/22 06:46:27;;;;;;;132.50;72.32;;;15.90;99.90;;;;;;4981800;28;20113;-81
2023/05/22 06:48:53;;;;;;;126.63;68.63;;;15.80;99.90;;;;;;4989028;28;20037;-80
2023/05/22 06:51:23;;;;;;;123.78;67.70;;;15.80;99.90;;;;;;4988952;28;20042;-80
2023/05/22 06:53:49;;;;;;;118.40;65.35;;;15.90;99.90;;;;;;4990478;28;20027;-79
2023/05/22 06:56:15;;;;;;;117.05;65.97;;;15.90;99.90;;;;;;4979324;28;20034;-81
2023/05/22 06:58:40;;;;;;;117.28;67.00;;;16.20;99.90;;;;;;4984886;28;20073;-80
2023/05/22 07:01:06;;;;;;;111.35;67.93;;;16.10;99.90;;;;;;4987755;28;20034;-80
2023/05/22 07:03:32;;;;;;;116.65;69.70;;;16.20;99.90;;;;;;4985359;28;20139;-80
2023/05/22 07:05:58;;;;;;;123.38;70.03;;;16.20;99.90;;;;;;4987697;28;21142;-78
2023/05/22 07:08:24;;;;;;;121.65;68.45;;;16.20;99.90;;;;;;4987210;28;20015;-76
2023/05/22 07:10:50;;;;;;;121.72;72.05;;;16.10;99.90;;;;;;4990460;28;20034;-78
2023/05/22 07:13:16;;;;;;;120.72;71.32;;;16.10;99.90;;;;;;4990274;28;20034;-77
2023/05/22 07:15:45;;;;;;;129.70;72.65;;;16.10;99.90;;;;;;4989649;28;20029;-77
2023/05/22 07:18:11;;;;;;;116.00;68.03;;;16.20;99.90;;;;;;4989047;28;20033;-77
2023/05/22 07:20:37;;;;;;;126.20;77.15;;;16.20;99.90;;;;;;4988110;28;20054;-76
2023/05/22 07:23:02;;;;;;;127.72;78.05;;;16.20;99.90;;;;;;4990055;28;20023;-76
2023/05/22 07:25:30;;;;;;;127.50;77.07;;;16.20;99.90;;;;;;4989016;28;20038;-77
2023/05/22 07:28:00;;;;;;;131.10;78.57;;;16.20;99.90;;;;;;4990862;28;20039;-79
2023/05/22 07:30:28;;;;;;;122.43;76.70;;;16.40;99.90;;;;;;4990042;28;20042;-80
2023/05/22 07:32:54;;;;;;;118.10;74.00;;;16.50;99.90;;;;;;4991178;28;20034;-79
2023/05/22 07:35:20;;;;;;;130.32;79.07;;;16.40;99.90;;;;;;4992513;28;20038;-79
2023/05/22 07:37:46;;;;;;;133.10;76.57;;;16.50;99.90;;;;;;5006102;28;20034;-78
2023/05/22 07:40:14;;;;;;;126.25;76.25;;;16.40;99.90;;;;;;4990213;28;20115;-80
2023/05/22 07:42:40;;;;;;;132.70;75.45;;;16.40;99.90;;;;;;4989967;28;20357;-80
2023/05/22 07:45:06;;;;;;;120.65;71.82;;;16.50;99.90;;;;;;4990304;28;20689;-79
2023/05/22 07:47:34;;;;;;;114.50;66.60;;;16.60;99.90;;;;;;4990643;28;20031;-79
2023/05/22 07:50:03;;;;;;;103.10;64.65;;;16.70;99.90;;;;;;4991559;28;20050;-78
2023/05/22 07:52:30;;;;;;;105.03;65.93;;;16.80;99.90;;;;;;4989003;28;20053;-79
2023/05/22 07:54:56;;;;;;;108.80;65.97;;;16.90;99.90;;;;;;4990125;28;20023;-79
2023/05/22 07:57:22;;;;;;;102.10;62.80;;;16.90;99.90;;;;;;4990744;28;20047;-78
2023/05/22 07:59:48;;;;;;;103.28;65.57;;;17.00;99.90;;;;;;4990771;28;20026;-80
2023/05/22 08:02:14;;;;;;;96.57;60.55;;;16.90;99.90;;;;;;4990135;28;20270;-77
2023/05/22 08:04:43;;;;;;;108.70;61.00;;;16.90;99.90;;;;;;4990716;28;20043;-78
2023/05/22 08:07:09;;;;;;;105.28;65.22;;;16.90;99.90;;;;;;5006451;28;20034;-79
2023/05/22 08:09:35;;;;;;;101.00;63.67;;;17.00;99.90;;;;;;4990678;28;20093;-78
2023/05/22 08:12:01;;;;;;;91.10;58.60;;;17.10;99.90;;;;;;4990730;28;20041;-78
2023/05/22 08:14:27;;;;;;;108.28;63.45;;;17.20;99.90;;;;;;4990715;28;21014;-78
2023/05/22 08:16:53;;;;;;;102.20;63.67;;;17.20;99.90;;;;;;4994025;28;20027;-77
2023/05/22 08:19:18;;;;;;;110.88;68.20;;;17.30;99.90;;;;;;4994098;28;20027;-79
2023/05/22 08:21:44;;;;;;;103.10;65.47;;;17.20;99.90;;;;;;4993109;28;20087;-78
2023/05/22 08:24:13;;;;;;;97.28;60.85;;;17.30;99.90;;;;;;4991163;28;20027;-79
2023/05/22 08:26:40;;;;;;;92.25;58.28;;;17.40;99.90;;;;;;5007836;28;20098;-78
2023/05/22 08:29:05;;;;;;;94.93;58.15;;;17.40;99.90;;;;;;4991122;28;20045;-77
2023/05/22 08:31:32;;;;;;;96.03;59.08;;;17.40;99.90;;;;;;4993532;28;20050;-81
2023/05/22 08:34:01;;;;;;;96.88;60.25;;;17.40;99.90;;;;;;4989592;28;20047;-79
2023/05/22 08:36:32;;;;;;;103.72;66.25;;;17.40;99.90;;;;;;4991064;28;20047;-78
2023/05/22 08:39:01;;;;;;;104.95;65.97;;;17.40;99.90;;;;;;4992862;28;20019;-78
2023/05/22 08:41:28;;;;;;;110.40;68.90;;;17.50;99.90;;;;;;5009086;28;20031;-78
2023/05/22 08:43:54;;;;;;;108.68;67.53;;;17.50;99.90;;;;;;4993485;28;20050;-78
2023/05/22 08:46:25;;;;;;;109.30;68.57;;;17.40;99.90;;;;;;4993570;28;20031;-78
2023/05/22 08:48:52;;;;;;;113.30;68.97;;;17.50;99.90;;;;;;5010413;28;20079;-78
2023/05/22 08:51:19;;;;;;;104.78;68.53;;;17.50;99.90;;;;;;4993514;28;20042;-78
2023/05/22 08:53:47;;;;;;;115.07;71.10;;;17.50;99.90;;;;;;5009483;28;20050;-76
2023/05/22 08:56:13;;;;;;;103.93;68.03;;;17.50;99.90;;;;;;4993846;28;20031;-78
2023/05/22 08:58:39;;;;;;;98.78;62.67;;;17.50;99.90;;;;;;4991035;28;20070;-76
2023/05/22 09:01:06;;;;;;;94.45;56.85;;;17.50;99.90;;;;;;4993927;28;20034;-78
2023/05/22 09:03:33;;;;;;;70.88;47.28;;;17.50;99.90;;;;;;5009553;28;20057;-77
2023/05/22 09:06:00;;;;;;;62.22;42.90;;;17.60;99.90;;;;;;4991872;28;20046;-77
2023/05/22 09:08:26;;;;;;;71.55;47.30;;;17.60;99.90;;;;;;4994836;28;20046;-77
2023/05/22 09:10:53;;;;;;;64.18;42.35;;;17.80;99.90;;;;;;4992857;28;20282;-78
2023/05/22 09:13:27;;;;;;;59.92;39.97;;;17.80;99.90;;;;;;4993506;28;20290;-78
2023/05/22 09:16:06;;;;;;;70.68;43.40;;;17.90;99.90;;;;;;4993743;28;20030;-77
2023/05/22 09:18:41;;;;;;;63.83;42.65;;;17.80;99.90;;;;;;4987898;28;20045;-78
2023/05/22 09:21:09;;;;;;;69.72;43.60;;;17.70;99.90;;;;;;4994361;28;20047;-79
2023/05/22 09:23:35;;;;;;;71.10;46.75;;;17.80;99.90;;;;;;4994197;28;20031;-78
2023/05/22 09:26:01;;;;;;;64.88;41.60;;;17.90;99.90;;;;;;4992645;28;20054;-78
2023/05/22 09:28:33;;;;;;;62.25;40.10;;;17.90;99.90;;;;;;4992734;28;20469;-77
2023/05/22 09:30:59;;;;;;;61.60;40.83;;;18.00;99.90;;;;;;4992090;28;20035;-77
2023/05/22 09:33:25;;;;;;;62.17;41.13;;;18.00;99.90;;;;;;4993267;28;20026;-77
2023/05/22 09:35:54;;;;;;;65.93;42.42;;;17.90;99.90;;;;;;4993198;28;20023;-77
2023/05/22 09:38:28;;;;;;;67.28;44.83;;;17.90;99.90;;;;;;4993715;28;20042;-78
2023/05/22 09:40:54;;;;;;;70.68;44.70;;;17.90;99.90;;;;;;4992060;28;20019;-79
2023/05/22 09:43:24;;;;;;;70.15;46.72;;;17.80;99.90;;;;;;4993911;28;20014;-78
2023/05/22 09:46:04;;;;;;;76.75;48.33;;;17.80;99.90;;;;;;4992625;28;20011;-77
2023/05/22 09:48:36;;;;;;;82.38;50.60;;;17.80;99.90;;;;;;4993153;28;20014;-77
2023/05/22 09:51:03;;;;;;;81.40;50.60;;;17.80;99.90;;;;;;5008714;28;20077;-77
2023/05/22 09:53:31;;;;;;;78.30;46.72;;;17.90;99.90;;;;;;4992832;28;20019;-77
2023/05/22 09:55:59;;;;;;;72.45;46.75;;;18.00;99.90;;;;;;4992564;28;20042;-77
2023/05/22 09:58:26;;;;;;;75.85;46.67;;;17.90;99.90;;;;;;5008212;28;20087;-77
2023/05/22 10:00:57;;;;;;;75.82;45.38;;;18.00;99.90;;;;;;5008328;28;20313;-79
2023/05/22 10:03:26;;;;;;;75.72;48.40;;;18.10;99.90;;;;;;4992103;28;20029;-76
2023/05/22 10:06:00;;;;;;;79.78;48.60;;;18.00;99.90;;;;;;4991367;28;20037;-78
2023/05/22 10:08:35;;;;;;;79.22;47.05;;;18.20;99.90;;;;;;4991784;28;20022;-76
2023/05/22 10:11:02;;;;;;;77.40;48.50;;;18.40;99.90;;;;;;4992749;28;20038;-76
2023/05/22 10:13:29;;;;;;;78.25;47.72;;;18.50;99.90;;;;;;4992955;28;20066;-76
2023/05/22 10:15:55;;;;;;;81.30;46.15;;;18.60;99.90;;;;;;4993392;28;20019;-75
2023/05/22 10:18:23;;;;;;;75.78;45.70;;;18.70;99.90;;;;;;4993561;28;20110;-78
2023/05/22 10:20:50;;;;;;;73.35;45.13;;;18.80;99.90;;;;;;5009399;28;20035;-75
2023/05/22 10:23:16;;;;;;;82.82;47.35;;;18.80;99.90;;;;;;4992422;28;20011;-76
2023/05/22 10:25:43;;;;;;;80.07;46.83;;;18.80;99.90;;;;;;4987216;28;20115;-75
2023/05/22 10:28:13;;;;;;;74.55;45.88;;;18.80;99.90;;;;;;5008457;28;20102;-76
2023/05/22 10:30:39;;;;;;;75.75;44.63;;;18.80;99.90;;;;;;4992494;28;20042;-76
2023/05/22 10:33:20;;;;;;;75.65;46.33;;;18.80;99.90;;;;;;4986350;28;20047;-75
2023/05/22 10:36:00;;;;;;;74.47;47.03;;;18.70;99.90;;;;;;5008921;28;20030;-75
2023/05/22 10:38:54;;;;;;;74.40;44.80;;;18.80;99.90;;;;;;4984741;28;20027;-77
2023/05/22 10:41:25;;;;;;;76.78;45.35;;;18.90;99.90;;;;;;4988433;28;20098;-77
2023/05/22 10:43:50;;;;;;;70.75;47.17;;;18.90;99.90;;;;;;5010836;28;20030;-77
2023/05/22 10:46:17;;;;;;;76.18;46.08;;;19.00;99.90;;;;;;4992390;28;20011;-77
2023/05/22 10:48:45;;;;;;;79.57;47.75;;;19.00;99.90;;;;;;4992902;28;20023;-77
2023/05/22 10:51:12;;;;;;;78.93;46.53;;;19.00;99.90;;;;;;4991953;28;20050;-76
2023/05/22 10:53:42;;;;;;;74.68;47.88;;;19.00;99.90;;;;;;5008010;28;20015;-76
2023/05/22 10:56:12;;;;;;;76.32;47.35;;;18.90;99.90;;;;;;4992159;28;20053;-77
2023/05/22 10:58:40;;;;;;;83.22;49.35;;;19.20;99.90;;;;;;4991491;28;20166;-77
2023/05/22 11:01:17;;;;;;;77.07;48.13;;;19.30;99.90;;;;;;4992077;28;20090;-76
2023/05/22 11:04:10;;;;;;;83.13;48.97;;;19.20;99.90;;;;;;4985690;28;20163;-77
2023/05/22 11:06:47;;;;;;;78.75;48.30;;;19.10;99.90;;;;;;4990096;28;20190;-77
2023/05/22 11:09:52;;;;;;;84.65;50.67;;;19.00;99.90;;;;;;4991492;28;20023;-76
2023/05/22 11:12:29;;;;;;;84.15;49.72;;;19.00;99.90;;;;;;5005564;28;20034;-76
2023/05/22 11:15:01;;;;;;;86.75;49.80;;;19.10;99.90;;;;;;4992980;28;20129;-76
2023/05/22 11:17:31;;;;;;;81.18;49.92;;;19.20;99.90;;;;;;4991488;28;20023;-77
2023/05/22 11:20:21;;;;;;;87.60;51.15;;;19.30;99.90;;;;;;4992882;28;20039;-76
2023/05/22 11:23:06;;;;;;;81.50;50.83;;;19.30;99.90;;;;;;4990173;28;20160;-75
2023/05/22 11:25:33;;;;;;;83.45;50.30;;;19.20;99.90;;;;;;4983245;28;20035;-75
2023/05/22 11:28:02;;;;;;;80.78;49.22;;;19.20;99.90;;;;;;4991645;28;20217;-77
2023/05/22 11:30:29;;;;;;;76.80;45.95;;;19.30;99.90;;;;;;4988445;28;20106;-79
2023/05/22 11:32:57;;;;;;;71.65;46.72;;;19.40;99.90;;;;;;4982402;28;20049;-81
2023/05/22 11:35:23;;;;;;;78.32;47.03;;;19.60;99.90;;;;;;4991185;28;20014;-75
2023/05/22 11:37:51;;;;;;;72.00;47.22;;;19.50;99.90;;;;;;4992341;28;20078;-77
2023/05/22 11:40:23;;;;;;;67.13;43.25;;;19.50;99.90;;;;;;4985874;28;20121;-78
2023/05/22 11:42:49;;;;;;;69.75;44.88;;;19.70;99.90;;;;;;4985907;28;20046;-79
2023/05/22 11:45:16;;;;;;;71.63;45.50;;;19.70;99.90;;;;;;4982001;28;20042;-80
2023/05/22 11:47:42;;;;;;;80.53;47.03;;;19.80;99.90;;;;;;4980113;28;20581;-81
2023/05/22 11:50:09;;;;;;;87.90;49.33;;;20.00;99.90;;;;;;4983416;28;20053;-78
2023/05/22 11:52:36;;;;;;;68.07;44.97;;;19.90;99.90;;;;;;4996232;28;20026;-76
2023/05/22 11:55:11;;;;;;;70.03;44.20;;;19.80;99.90;;;;;;4995089;28;20030;-77
2023/05/22 11:57:37;;;;;;;63.33;42.72;;;19.90;99.90;;;;;;4985105;28;20026;-80
2023/05/22 12:00:07;;;;;;;70.22;45.42;;;20.00;99.90;;;;;;4977695;28;21656;-82
2023/05/22 12:02:35;;;;;;;70.65;46.50;;;20.20;99.90;;;;;;4978794;28;20602;-79
2023/05/22 12:05:08;;;;;;;67.75;43.40;;;20.20;99.90;;;;;;4982262;28;20026;-81
2023/05/22 12:07:34;;;;;;;62.28;42.45;;;20.20;99.90;;;;;;4979266;28;20463;-82
2023/05/22 12:10:02;;;;;;;63.90;40.70;;;20.20;99.90;;;;;;4975031;28;20119;-84
2023/05/22 12:12:30;;;;;;;64.70;41.58;;;20.30;99.90;;;;;;4975813;28;20034;-85
2023/05/22 12:14:56;;;;;;;67.75;42.78;;;20.40;99.90;;;;;;4978147;28;20175;-79
2023/05/22 12:17:22;;;;;;;65.65;44.42;;;20.40;99.90;;;;;;4995033;28;20972;-77
2023/05/22 12:19:47;;;;;;;79.50;45.45;;;20.30;99.90;;;;;;4995893;28;20094;-76
2023/05/22 12:22:15;;;;;;;72.68;45.15;;;20.20;99.90;;;;;;4993449;28;20066;-79
2023/05/22 12:24:45;;;;;;;70.10;44.85;;;20.30;99.90;;;;;;4992781;28;20039;-76
2023/05/22 12:27:12;;;;;;;70.45;43.72;;;20.20;99.90;;;;;;4996068;28;20018;-77
2023/05/22 12:29:39;;;;;;;65.43;42.65;;;20.30;99.90;;;;;;4991422;28;20147;-80
2023/05/22 12:32:10;;;;;;;69.70;43.53;;;20.40;99.90;;;;;;4983878;28;20442;-80